Yucca Valley, California
Current Conditions -  °F | °C
As of 6:56 PM on Thursday 27 Nov 2014 (Local Time) from KNXP Reporting Station
Clear Clear  
Wind Chill: 57°   Ceiling: Unl
Heat Index: 57°   Visibility: 10mi
Dew Point: 16°   Wind: 0mph
Humidity: 20%   Direction: NA
Pressure: 30.2"   Gusts: NA
Location:  34.12°N, 116.41°W
Report Text: KNXP 280256Z AUTO 00000KT 10SM CLR 14/M09 A3020 RMK AO2 SLP208 T01391089 53001 $
Loading
Personal Weather Stations






























Interactive Weather Map New forecast layout! Learn more

10-Day Weather Forecast

Advertisements
Track Severe Weather on mobile